Time;durP1;ratioP1;P1;durP2;ratioP2;P2;SDS_P1;SDS_P2;PMS_P1;PMS_P2;Temp;Humidity;BMP_temperature;BMP_pressure;BME280_temperature;BME280_humidity;BME280_pressure;Samples;Min_cycle;Max_cycle;Signal;HPM_P1;HPM_P2
2023/01/15 00:00:32;;;;;;;1.67;1.58;;;6.20;99.90;;;;;;5054621;28;20220;-74
2023/01/15 00:02:58;;;;;;;1.75;1.73;;;6.20;99.90;;;;;;5054334;28;20197;-74
2023/01/15 00:05:25;;;;;;;2.20;1.95;;;6.10;99.90;;;;;;5054568;28;20204;-74
2023/01/15 07:06:18;;;;;;;0.28;0.28;;;7.80;99.90;;;;;;5895303;22;20202;-76
2023/01/15 07:08:45;;;;;;;0.40;0.40;;;7.70;99.90;;;;;;5015733;28;20221;-76
2023/01/15 07:11:13;;;;;;;0.55;0.55;;;7.70;99.90;;;;;;5015767;28;20240;-76
2023/01/15 07:13:39;;;;;;;0.40;0.40;;;7.70;99.90;;;;;;5015814;28;20253;-76
2023/01/15 07:16:25;;;;;;;0.30;0.30;;;7.60;99.90;;;;;;5015682;28;20230;-76
2023/01/15 07:18:52;;;;;;;0.47;0.47;;;7.70;99.90;;;;;;5018975;28;20237;-77
2023/01/15 07:21:20;;;;;;;0.38;0.38;;;7.70;99.90;;;;;;5016603;28;20538;-77
2023/01/15 07:23:47;;;;;;;0.40;0.40;;;7.70;99.90;;;;;;5017343;28;20669;-78
2023/01/15 07:26:14;;;;;;;1.45;0.40;;;7.70;99.90;;;;;;5015771;28;20276;-77
2023/01/15 07:28:41;;;;;;;0.30;0.30;;;7.70;99.90;;;;;;5015461;28;20206;-77
2023/01/15 07:31:08;;;;;;;0.35;0.35;;;7.70;99.90;;;;;;5015388;28;20229;-77
2023/01/15 07:33:35;;;;;;;1.45;0.30;;;7.70;99.90;;;;;;5015367;28;20209;-76
2023/01/15 07:36:02;;;;;;;0.40;0.40;;;7.70;99.90;;;;;;5016158;28;20222;-78
2023/01/15 07:38:30;;;;;;;0.50;0.50;;;7.70;99.90;;;;;;5018484;28;20616;-78
2023/01/15 07:51:53;;;;;;;0.32;0.32;;;7.60;99.90;;;;;;5017776;28;20213;-77
2023/01/15 07:54:22;;;;;;;0.40;0.40;;;7.60;99.90;;;;;;5016075;28;20206;-77
2023/01/15 07:56:48;;;;;;;0.40;0.40;;;7.60;99.90;;;;;;5015902;28;20225;-77
2023/01/15 07:59:15;;;;;;;0.50;0.50;;;7.60;99.90;;;;;;5020939;28;20201;-79
2023/01/15 08:01:42;;;;;;;0.43;0.43;;;7.50;99.90;;;;;;5019661;28;20202;-81
2023/01/15 08:04:08;;;;;;;0.35;0.35;;;7.60;99.90;;;;;;5017058;28;20228;-81
2023/01/15 08:06:35;;;;;;;0.63;0.40;;;7.60;99.90;;;;;;5017069;28;20254;-81
2023/01/15 08:09:03;;;;;;;0.40;0.40;;;7.60;99.90;;;;;;5017106;28;20581;-81
2023/01/15 08:17:01;;;;;;;0.50;0.50;;;7.70;99.90;;;;;;5018172;28;20221;-81
2023/01/15 08:19:28;;;;;;;0.77;0.40;;;7.70;99.90;;;;;;5017062;28;20201;-78
2023/01/15 08:21:55;;;;;;;0.32;0.32;;;7.80;99.90;;;;;;5017429;28;20198;-80
2023/01/15 08:24:22;;;;;;;0.40;0.40;;;7.60;99.90;;;;;;5016596;28;20224;-80
2023/01/15 08:26:52;;;;;;;0.50;0.50;;;7.30;99.90;;;;;;5017988;28;20222;-80
2023/01/15 08:29:19;;;;;;;0.63;0.63;;;6.90;99.90;;;;;;5016670;28;20618;-81
2023/01/15 08:31:46;;;;;;;0.30;0.30;;;6.50;99.90;;;;;;5016506;28;20229;-80
2023/01/15 08:34:12;;;;;;;0.30;0.30;;;6.30;99.90;;;;;;5016913;28;20206;-79
2023/01/15 08:36:39;;;;;;;2.33;0.50;;;6.10;99.90;;;;;;5019643;28;20248;-80
2023/01/15 08:39:06;;;;;;;0.40;0.40;;;5.90;99.90;;;;;;5019705;28;20206;-82
2023/01/15 08:41:33;;;;;;;1.05;1.05;;;5.90;99.90;;;;;;5018847;28;20198;-82
2023/01/15 08:44:01;;;;;;;0.68;0.68;;;5.70;99.90;;;;;;5020123;28;20208;-81
2023/01/15 08:46:27;;;;;;;0.40;0.40;;;5.60;99.90;;;;;;5022278;28;20225;-79
2023/01/15 08:48:54;;;;;;;0.40;0.40;;;5.50;99.90;;;;;;5021323;28;20228;-78
2023/01/15 08:51:21;;;;;;;0.40;0.40;;;5.40;99.90;;;;;;5018777;28;20206;-78
2023/01/15 08:53:48;;;;;;;0.40;0.40;;;5.30;99.90;;;;;;5018149;28;20198;-78
2023/01/15 08:56:16;;;;;;;0.32;0.32;;;5.30;99.90;;;;;;5018277;28;20222;-78
2023/01/15 08:58:43;;;;;;;0.40;0.40;;;5.20;99.90;;;;;;5017621;28;20696;-78
2023/01/15 09:01:14;;;;;;;0.40;0.40;;;5.10;99.90;;;;;;5019627;28;20201;-78
2023/01/15 09:03:41;;;;;;;0.40;0.40;;;5.10;99.90;;;;;;5030836;28;20190;-77
2023/01/15 09:06:09;;;;;;;0.40;0.40;;;5.00;99.90;;;;;;5031837;28;20229;-78
2023/01/15 09:08:53;;;;;;;0.70;0.70;;;5.00;99.90;;;;;;5106482;27;21051;-77
2023/01/15 09:11:20;;;;;;;0.30;0.30;;;5.00;99.90;;;;;;5093940;28;20203;-78
2023/01/15 09:13:49;;;;;;;0.32;0.32;;;4.90;99.90;;;;;;5093047;28;20191;-79
2023/01/15 09:16:16;;;;;;;0.38;0.38;;;5.00;99.90;;;;;;5095597;28;20216;-79
2023/01/15 09:18:43;;;;;;;0.30;0.30;;;5.00;99.90;;;;;;5092703;28;20204;-77
2023/01/15 09:21:10;;;;;;;0.32;0.32;;;5.00;99.90;;;;;;5093274;28;20203;-79
2023/01/15 09:23:36;;;;;;;0.40;0.40;;;4.90;99.90;;;;;;5092691;28;20205;-77
2023/01/15 09:26:07;;;;;;;0.30;0.30;;;4.90;99.90;;;;;;5091976;28;20223;-77
2023/01/15 09:28:35;;;;;;;0.40;0.40;;;4.90;99.90;;;;;;5091287;28;20673;-75
2023/01/15 09:31:02;;;;;;;0.30;0.30;;;4.80;99.90;;;;;;5091241;28;20210;-78
2023/01/15 09:33:28;;;;;;;0.30;0.30;;;4.70;99.90;;;;;;5091378;28;20210;-77
2023/01/15 09:35:55;;;;;;;0.45;0.45;;;4.70;99.90;;;;;;5091368;28;20227;-76
2023/01/15 09:38:22;;;;;;;0.40;0.40;;;4.70;99.90;;;;;;5091493;28;20203;-77
2023/01/15 09:40:51;;;;;;;1.10;0.40;;;4.70;99.90;;;;;;5092285;28;20188;-77
2023/01/15 09:43:36;;;;;;;0.40;0.40;;;4.70;99.90;;;;;;5091215;28;20191;-77
2023/01/15 09:46:09;;;;;;;0.40;0.40;;;4.80;99.90;;;;;;5092052;28;20690;-78
2023/01/15 09:48:54;;;;;;;0.52;0.38;;;4.80;99.90;;;;;;5091322;28;20697;-77
2023/01/15 09:51:31;;;;;;;0.60;0.60;;;4.90;99.90;;;;;;5091570;28;20191;-78
2023/01/15 09:54:16;;;;;;;0.63;0.63;;;4.90;99.90;;;;;;5093338;28;20203;-76
2023/01/15 09:56:45;;;;;;;0.40;0.40;;;4.80;99.90;;;;;;5091315;28;20238;-79
2023/01/15 09:59:22;;;;;;;1.27;0.50;;;4.80;99.90;;;;;;5093221;28;20203;-79
2023/01/15 10:01:50;;;;;;;0.40;0.40;;;4.80;99.90;;;;;;5095729;28;20191;-80
2023/01/15 10:04:30;;;;;;;1.67;0.40;;;4.80;99.90;;;;;;5094642;28;20203;-78
2023/01/15 10:07:11;;;;;;;0.43;0.43;;;4.90;99.90;;;;;;5094213;28;20624;-79
2023/01/15 10:09:40;;;;;;;0.30;0.30;;;4.90;99.90;;;;;;5093070;28;20192;-77
2023/01/15 10:15:07;;;;;;;0.30;0.30;;;4.90;99.90;;;;;;5090623;28;20190;-79
2023/01/15 10:17:40;;;;;;;0.50;0.50;;;4.90;99.90;;;;;;5091057;28;20211;-77
2023/01/15 10:20:14;;;;;;;0.40;0.40;;;4.80;99.90;;;;;;5077923;28;20191;-77
2023/01/15 10:22:55;;;;;;;0.50;0.50;;;4.70;99.90;;;;;;5079352;28;20246;-79
2023/01/15 10:25:25;;;;;;;0.40;0.40;;;4.70;99.90;;;;;;5078910;28;20184;-79
2023/01/15 10:27:52;;;;;;;0.50;0.50;;;4.80;99.90;;;;;;5078989;28;20204;-77
2023/01/15 10:30:30;;;;;;;0.60;0.60;;;4.70;99.90;;;;;;5076841;28;20671;-79
2023/01/15 10:33:01;;;;;;;0.50;0.50;;;4.70;99.90;;;;;;5081435;28;20188;-78
2023/01/15 10:35:34;;;;;;;0.50;0.50;;;4.60;99.90;;;;;;5080340;28;20202;-77
2023/01/15 10:38:13;;;;;;;0.70;0.70;;;4.60;99.90;;;;;;5081764;28;20272;-77
2023/01/15 10:40:55;;;;;;;0.55;0.40;;;4.60;99.90;;;;;;5083177;28;20200;-78
2023/01/15 10:43:32;;;;;;;0.60;0.60;;;4.50;99.90;;;;;;5081867;28;20195;-77
2023/01/15 10:46:08;;;;;;;0.50;0.50;;;4.50;99.90;;;;;;5082485;28;20589;-78
2023/01/15 10:48:39;;;;;;;0.50;0.50;;;4.50;99.90;;;;;;5084572;28;20215;-82
2023/01/15 10:51:14;;;;;;;0.82;0.82;;;4.50;99.90;;;;;;5080693;28;20184;-79
2023/01/15 10:53:48;;;;;;;1.38;1.05;;;4.50;99.90;;;;;;5084066;28;20250;-78
2023/01/15 10:56:26;;;;;;;0.70;0.70;;;4.50;99.90;;;;;;5083718;28;20211;-79
2023/01/15 10:58:58;;;;;;;0.95;0.82;;;4.50;99.90;;;;;;5082434;28;20192;-80
2023/01/15 11:01:28;;;;;;;0.50;0.50;;;4.50;99.90;;;;;;5083600;28;20198;-78
2023/01/15 11:03:55;;;;;;;0.30;0.30;;;4.50;99.90;;;;;;5079847;28;20310;-79
2023/01/15 11:06:24;;;;;;;0.50;0.50;;;4.40;99.90;;;;;;5080426;28;20223;-81
2023/01/15 11:08:53;;;;;;;0.50;0.50;;;4.40;99.90;;;;;;5078917;28;20277;-75
2023/01/15 11:19:39;;;;;;;0.75;0.40;;;4.40;99.90;;;;;;5077643;28;20620;-78
2023/01/15 11:22:09;;;;;;;0.40;0.40;;;4.40;99.90;;;;;;5093030;28;20196;-77
2023/01/15 11:24:38;;;;;;;0.40;0.40;;;4.40;99.90;;;;;;5089467;28;20671;-82
2023/01/15 11:27:06;;;;;;;0.47;0.47;;;4.30;99.90;;;;;;5079945;28;20302;-83
2023/01/15 11:29:36;;;;;;;0.50;0.50;;;4.30;99.90;;;;;;5079191;28;20196;-79
2023/01/15 11:32:17;;;;;;;0.40;0.40;;;4.30;99.90;;;;;;5078792;28;20239;-79
2023/01/15 11:34:52;;;;;;;0.45;0.45;;;4.30;99.90;;;;;;5080593;28;20623;-80
2023/01/15 11:37:19;;;;;;;0.55;0.55;;;4.30;99.90;;;;;;5078024;28;20231;-77
2023/01/15 11:39:53;;;;;;;0.40;0.40;;;4.30;99.90;;;;;;5075877;28;20214;-78
2023/01/15 11:50:53;;;;;;;0.50;0.50;;;4.20;99.90;;;;;;5076212;28;20190;-77
2023/01/15 11:53:23;;;;;;;0.90;0.90;;;4.30;99.90;;;;;;5076309;28;20195;-78
2023/01/15 11:55:58;;;;;;;0.50;0.50;;;4.20;99.90;;;;;;5075606;28;20216;-79
2023/01/15 11:58:26;;;;;;;0.68;0.68;;;4.20;99.90;;;;;;5077468;28;20184;-77
2023/01/15 12:00:55;;;;;;;1.05;1.05;;;4.20;99.90;;;;;;5075722;28;20207;-78
2023/01/15 12:03:26;;;;;;;0.40;0.40;;;4.20;99.90;;;;;;5075960;28;20200;-78
2023/01/15 12:05:59;;;;;;;0.43;0.43;;;4.10;99.90;;;;;;5077600;28;20227;-79
2023/01/15 12:08:39;;;;;;;0.50;0.50;;;4.10;99.90;;;;;;5079282;28;20223;-80
2023/01/15 12:11:17;;;;;;;0.60;0.60;;;4.10;99.90;;;;;;5079522;28;20176;-80
2023/01/15 12:13:51;;;;;;;0.60;0.60;;;4.20;99.90;;;;;;5079370;28;20195;-79
2023/01/15 12:16:28;;;;;;;0.75;0.75;;;4.20;99.90;;;;;;5079784;28;20220;-80
2023/01/15 12:18:59;;;;;;;0.50;0.50;;;4.10;99.90;;;;;;5079494;28;20259;-80
2023/01/15 12:21:45;;;;;;;0.50;0.50;;;4.10;99.90;;;;;;5079300;28;20192;-79
2023/01/15 12:24:46;;;;;;;0.80;0.80;;;4.10;99.90;;;;;;5080452;28;20535;-80
2023/01/15 12:27:29;;;;;;;0.60;0.60;;;4.20;99.90;;;;;;5080489;28;20223;-80
2023/01/15 12:30:02;;;;;;;0.60;0.60;;;4.20;99.90;;;;;;5080453;28;20206;-80
2023/01/15 12:32:34;;;;;;;0.50;0.50;;;4.10;99.90;;;;;;5079953;28;20196;-80
2023/01/15 12:35:07;;;;;;;0.55;0.55;;;4.10;99.90;;;;;;5079949;28;20632;-79
2023/01/15 12:37:39;;;;;;;0.52;0.52;;;4.10;99.90;;;;;;5077263;28;20227;-79
2023/01/15 12:40:19;;;;;;;0.55;0.55;;;4.00;99.90;;;;;;5077068;28;20191;-77
2023/01/15 12:45:38;;;;;;;0.50;0.50;;;3.90;99.90;;;;;;5076288;28;20187;-78
2023/01/15 12:48:15;;;;;;;1.45;0.50;;;3.90;99.90;;;;;;5076318;28;20200;-77
2023/01/15 12:50:46;;;;;;;0.77;0.77;;;3.80;99.90;;;;;;5074335;28;20191;-77
2023/01/15 12:53:17;;;;;;;0.52;0.52;;;3.70;99.90;;;;;;5074324;28;20185;-77
2023/01/15 12:55:48;;;;;;;0.68;0.68;;;3.70;99.90;;;;;;5075179;28;20220;-77
2023/01/15 12:58:28;;;;;;;0.50;0.50;;;3.60;99.90;;;;;;5075265;28;20216;-78
2023/01/15 13:01:05;;;;;;;0.63;0.63;;;3.60;99.90;;;;;;5075364;28;20206;-78
2023/01/15 13:03:40;;;;;;;0.90;0.75;;;3.70;99.90;;;;;;5075472;28;20180;-78
2023/01/15 13:06:09;;;;;;;0.50;0.50;;;3.60;99.90;;;;;;5074378;28;20230;-78
2023/01/15 13:08:42;;;;;;;0.50;0.50;;;3.60;99.90;;;;;;5074968;28;20226;-78
2023/01/15 13:11:12;;;;;;;0.50;0.50;;;3.60;99.90;;;;;;5078729;28;20226;-82
2023/01/15 13:13:41;;;;;;;0.45;0.45;;;3.60;99.90;;;;;;5077644;28;20200;-79
2023/01/15 13:16:19;;;;;;;0.60;0.60;;;3.70;99.90;;;;;;5076937;28;20224;-79
2023/01/15 13:19:00;;;;;;;0.50;0.50;;;3.60;99.90;;;;;;5077244;28;20233;-80
2023/01/15 13:21:30;;;;;;;0.60;0.60;;;3.60;99.90;;;;;;5078148;28;20242;-76
2023/01/15 13:24:14;;;;;;;0.50;0.50;;;3.70;99.90;;;;;;5073487;28;20559;-76
2023/01/15 13:26:59;;;;;;;0.60;0.60;;;3.60;99.90;;;;;;5083530;28;20220;-80
2023/01/15 13:29:37;;;;;;;0.60;0.60;;;3.60;99.90;;;;;;5084531;28;20239;-80
2023/01/15 13:32:10;;;;;;;0.50;0.50;;;3.60;99.90;;;;;;5080997;28;20180;-80
2023/01/15 13:34:43;;;;;;;0.60;0.60;;;3.50;99.90;;;;;;5080723;28;20203;-79
2023/01/15 13:37:20;;;;;;;0.70;0.70;;;3.40;99.90;;;;;;5079336;28;20277;-79
2023/01/15 13:39:48;;;;;;;0.60;0.60;;;3.30;99.90;;;;;;5078889;28;20204;-81
2023/01/15 13:42:32;;;;;;;0.98;0.98;;;3.30;99.90;;;;;;5078859;28;20282;-81
2023/01/15 13:45:01;;;;;;;0.90;0.90;;;3.30;99.90;;;;;;5078996;28;20193;-80
2023/01/15 13:47:32;;;;;;;1.00;1.00;;;3.30;99.90;;;;;;5078328;28;20689;-80
2023/01/15 13:50:02;;;;;;;0.90;0.90;;;3.30;99.90;;;;;;5078588;28;20208;-80
2023/01/15 13:52:32;;;;;;;0.90;0.90;;;3.30;99.90;;;;;;5078892;28;20184;-79
2023/01/15 13:55:01;;;;;;;0.75;0.75;;;3.30;99.90;;;;;;5082540;28;20719;-79
2023/01/15 13:57:34;;;;;;;0.60;0.60;;;3.20;99.90;;;;;;5082920;28;20230;-79
2023/01/15 14:00:03;;;;;;;0.80;0.80;;;3.20;99.90;;;;;;5083009;28;20568;-80
2023/01/15 14:02:31;;;;;;;1.55;0.70;;;3.20;99.90;;;;;;5082205;28;20200;-80
2023/01/15 14:04:59;;;;;;;0.65;0.65;;;3.20;99.90;;;;;;5082823;28;20291;-80
2023/01/15 14:07:35;;;;;;;1.05;1.05;;;3.20;99.90;;;;;;5083385;28;20228;-80
2023/01/15 14:10:24;;;;;;;2.50;2.38;;;3.30;99.90;;;;;;5083456;28;20199;-81
2023/01/15 14:13:02;;;;;;;1.05;1.05;;;3.20;99.90;;;;;;5083396;28;20191;-80
2023/01/15 14:15:40;;;;;;;0.82;0.82;;;3.20;99.90;;;;;;5083193;28;20195;-80
2023/01/15 14:18:29;;;;;;;0.70;0.70;;;3.10;99.90;;;;;;5083853;28;20192;-81
2023/01/15 14:21:03;;;;;;;0.63;0.63;;;3.10;99.90;;;;;;5083543;28;20203;-80
2023/01/15 14:23:52;;;;;;;0.80;0.80;;;3.10;99.90;;;;;;5083513;28;20188;-80
2023/01/15 14:26:24;;;;;;;1.00;1.00;;;3.10;99.90;;;;;;5083231;28;20598;-81
2023/01/15 14:29:28;;;;;;;0.75;0.75;;;3.10;99.90;;;;;;5083439;28;20208;-80
2023/01/15 14:32:06;;;;;;;0.70;0.70;;;3.00;99.90;;;;;;5080623;28;20215;-79
2023/01/15 14:34:35;;;;;;;0.63;0.63;;;2.90;99.90;;;;;;5082694;28;20669;-80
2023/01/15 14:37:06;;;;;;;0.70;0.65;;;2.90;99.90;;;;;;5083232;28;20236;-80
2023/01/15 14:39:47;;;;;;;3.10;1.30;;;2.80;99.90;;;;;;5083952;28;20180;-80
2023/01/15 14:45:05;;;;;;;2.00;1.75;;;2.80;99.90;;;;;;5081303;28;20183;-81
2023/01/15 14:47:44;;;;;;;1.50;1.40;;;2.80;99.90;;;;;;5081650;28;20242;-80
2023/01/15 14:50:32;;;;;;;1.30;1.30;;;2.70;99.90;;;;;;5083350;28;20671;-80
2023/01/15 14:53:05;;;;;;;0.80;0.80;;;2.80;99.90;;;;;;5086482;28;20184;-79
2023/01/15 14:55:34;;;;;;;0.80;0.80;;;2.80;99.90;;;;;;5082423;28;20188;-80
2023/01/15 14:58:03;;;;;;;2.33;2.13;;;2.70;99.90;;;;;;5079661;28;20290;-80
2023/01/15 15:00:35;;;;;;;1.17;1.17;;;2.80;99.90;;;;;;5079878;28;20192;-80
2023/01/15 15:03:04;;;;;;;0.60;0.60;;;2.70;99.90;;;;;;5080099;28;20245;-79
2023/01/15 15:05:33;;;;;;;0.90;0.90;;;2.70;99.90;;;;;;5080145;28;20682;-79
2023/01/15 15:08:00;;;;;;;0.98;0.93;;;2.70;99.90;;;;;;5079106;28;20586;-80
2023/01/15 15:10:33;;;;;;;1.20;1.10;;;2.80;99.90;;;;;;5079207;28;20717;-79
2023/01/15 15:13:06;;;;;;;0.90;0.90;;;2.70;99.90;;;;;;5080178;28;20199;-80
2023/01/15 15:15:42;;;;;;;0.90;0.80;;;2.60;99.90;;;;;;5080882;28;20184;-79
2023/01/15 15:18:18;;;;;;;2.67;1.02;;;2.70;99.90;;;;;;5081328;28;20191;-79
2023/01/15 15:20:51;;;;;;;0.80;0.80;;;2.50;99.90;;;;;;5080745;28;20187;-79
2023/01/15 15:23:24;;;;;;;2.55;1.27;;;2.40;99.90;;;;;;5080875;28;20199;-80
2023/01/15 15:25:56;;;;;;;1.20;1.10;;;2.30;99.90;;;;;;5081525;28;20247;-79
2023/01/15 15:28:24;;;;;;;3.20;1.10;;;2.30;99.90;;;;;;5080215;28;20190;-79
2023/01/15 15:30:51;;;;;;;3.67;1.05;;;2.30;99.90;;;;;;5080874;28;20211;-79
2023/01/15 15:33:21;;;;;;;1.08;1.00;;;2.30;99.90;;;;;;5081029;28;20204;-79
2023/01/15 15:35:50;;;;;;;1.20;0.93;;;2.20;99.90;;;;;;5080360;28;20227;-79
2023/01/15 15:38:19;;;;;;;3.00;0.95;;;2.10;99.90;;;;;;5087675;28;20200;-79
2023/01/15 15:40:49;;;;;;;2.72;0.93;;;2.00;99.90;;;;;;5088993;28;20207;-79
2023/01/15 15:49:07;;;;;;;2.00;1.38;;;1.90;99.90;;;;;;5089266;28;20296;-78
2023/01/15 15:51:36;;;;;;;0.90;0.90;;;1.90;99.90;;;;;;5089822;28;20610;-78
2023/01/15 15:54:15;;;;;;;1.33;1.30;;;1.90;99.90;;;;;;5091118;28;20196;-79
2023/01/15 15:56:48;;;;;;;0.98;0.98;;;1.80;99.90;;;;;;5089411;28;20250;-78
2023/01/15 15:59:27;;;;;;;0.90;0.90;;;1.70;99.90;;;;;;5089130;28;20180;-77
2023/01/15 16:01:56;;;;;;;0.80;0.80;;;1.80;99.90;;;;;;5086070;28;20180;-77
2023/01/15 16:04:23;;;;;;;3.53;1.10;;;1.70;99.90;;;;;;5085860;28;20204;-78
2023/01/15 16:06:50;;;;;;;2.42;0.80;;;1.60;99.90;;;;;;5080172;28;20235;-77
2023/01/15 16:09:21;;;;;;;1.08;1.02;;;1.60;99.90;;;;;;5074918;28;20300;-76
2023/01/15 16:11:50;;;;;;;1.38;0.82;;;1.50;99.90;;;;;;5074759;28;20640;-76
2023/01/15 16:14:19;;;;;;;0.90;0.90;;;1.50;99.90;;;;;;5077587;28;20203;-79
2023/01/15 16:16:47;;;;;;;1.15;1.15;;;1.40;99.90;;;;;;5078357;28;20216;-78
2023/01/15 16:19:20;;;;;;;1.50;1.40;;;1.30;99.90;;;;;;5076447;28;20196;-79
2023/01/15 16:21:47;;;;;;;2.25;1.10;;;1.30;99.90;;;;;;5076931;28;20184;-80
2023/01/15 16:24:26;;;;;;;1.35;1.10;;;1.20;99.90;;;;;;5077933;28;20211;-79
2023/01/15 16:27:06;;;;;;;1.75;1.10;;;1.20;99.90;;;;;;5076597;28;20224;-80
2023/01/15 16:29:34;;;;;;;3.67;2.33;;;1.30;99.90;;;;;;5076115;28;20212;-79
2023/01/15 16:32:09;;;;;;;6.07;2.90;;;1.30;99.90;;;;;;5076078;28;20206;-78
2023/01/15 16:34:37;;;;;;;30.02;12.63;;;1.20;99.90;;;;;;5077257;28;20657;-78
2023/01/15 16:37:17;;;;;;;25.90;11.82;;;1.20;99.90;;;;;;5078087;28;20224;-79
2023/01/15 16:39:45;;;;;;;22.15;10.80;;;1.10;99.90;;;;;;5079140;28;20264;-79
2023/01/15 16:42:28;;;;;;;31.65;18.38;;;1.00;99.90;;;;;;5077497;28;20566;-79
2023/01/15 16:44:59;;;;;;;14.00;9.52;;;1.00;99.90;;;;;;5078488;28;20188;-78
2023/01/15 16:47:28;;;;;;;6.22;4.70;;;0.90;99.90;;;;;;5078882;28;20223;-79
2023/01/15 16:50:28;;;;;;;8.75;6.07;;;0.90;99.90;;;;;;5075459;28;20317;-77
2023/01/15 16:52:58;;;;;;;2.10;1.92;;;0.80;99.90;;;;;;5074340;28;20218;-78
2023/01/15 16:55:43;;;;;;;3.05;2.15;;;0.90;99.90;;;;;;5074752;28;20277;-78
2023/01/15 16:58:21;;;;;;;7.82;4.30;;;0.90;99.90;;;;;;5076594;28;20204;-78
2023/01/15 17:00:51;;;;;;;3.45;3.15;;;0.80;99.90;;;;;;5077162;28;20191;-79
2023/01/15 17:03:20;;;;;;;3.30;2.95;;;0.80;99.90;;;;;;5077804;28;20188;-79
2023/01/15 17:05:51;;;;;;;3.63;3.30;;;0.80;99.90;;;;;;5077173;28;20227;-79
2023/01/15 17:08:20;;;;;;;4.70;3.17;;;0.80;99.90;;;;;;5076305;28;20211;-78
2023/01/15 17:10:56;;;;;;;2.97;1.55;;;0.70;99.90;;;;;;5077165;28;20224;-79
2023/01/15 17:13:31;;;;;;;1.88;1.77;;;0.60;99.90;;;;;;5079425;28;20180;-81
2023/01/15 17:16:05;;;;;;;2.58;1.60;;;0.70;99.90;;;;;;5081829;28;20226;-77
2023/01/15 17:18:32;;;;;;;5.65;2.17;;;0.70;99.90;;;;;;5075438;28;20223;-74
2023/01/15 17:21:01;;;;;;;5.00;2.78;;;0.60;99.90;;;;;;5074936;28;20222;-74
2023/01/15 17:23:37;;;;;;;4.45;2.60;;;0.70;99.90;;;;;;5077047;28;20204;-74
2023/01/15 17:26:05;;;;;;;3.83;2.35;;;0.70;99.90;;;;;;5078483;28;20601;-76
2023/01/15 17:28:32;;;;;;;3.97;3.10;;;0.60;99.90;;;;;;5078489;28;20257;-76
2023/01/15 17:31:01;;;;;;;5.00;3.60;;;0.60;99.90;;;;;;5080301;28;20219;-76
2023/01/15 17:33:29;;;;;;;3.20;2.35;;;0.50;99.90;;;;;;5081560;28;20204;-77
2023/01/15 17:35:59;;;;;;;21.95;12.07;;;0.50;99.90;;;;;;5081935;28;20223;-76
2023/01/15 17:38:28;;;;;;;11.98;6.43;;;0.50;99.90;;;;;;5080427;28;20188;-76
2023/01/15 17:40:58;;;;;;;10.32;5.80;;;0.50;99.90;;;;;;5080305;28;20196;-76
2023/01/15 17:43:27;;;;;;;8.95;4.25;;;0.50;99.90;;;;;;5080248;28;20756;-76
2023/01/15 17:45:54;;;;;;;3.15;2.83;;;0.60;99.90;;;;;;5080241;28;20311;-76
2023/01/15 17:48:21;;;;;;;2.00;1.90;;;0.50;99.90;;;;;;5081184;28;20273;-74
2023/01/15 17:50:48;;;;;;;3.22;2.30;;;0.50;99.90;;;;;;5078934;28;20219;-74
2023/01/15 17:53:15;;;;;;;4.00;2.58;;;0.50;99.90;;;;;;5077415;28;20196;-74
2023/01/15 18:06:49;;;;;;;2.05;1.58;;;0.50;99.90;;;;;;5076695;28;20354;-76
2023/01/15 18:09:17;;;;;;;1.75;1.38;;;0.60;99.90;;;;;;5076686;28;20211;-74
2023/01/15 18:11:45;;;;;;;1.33;1.33;;;0.60;99.90;;;;;;5076717;28;20200;-75
2023/01/15 18:14:12;;;;;;;3.42;2.10;;;0.60;99.90;;;;;;5076583;28;20196;-74
2023/01/15 18:16:39;;;;;;;1.15;1.13;;;0.60;99.90;;;;;;5076163;28;20709;-74
2023/01/15 18:19:05;;;;;;;1.85;1.30;;;0.70;99.90;;;;;;5076584;28;20226;-74
2023/01/15 18:21:32;;;;;;;1.52;1.40;;;0.70;99.90;;;;;;5076357;28;20200;-74
2023/01/15 18:24:00;;;;;;;1.48;1.30;;;0.60;99.90;;;;;;5076098;28;20666;-75
2023/01/15 18:26:26;;;;;;;4.68;3.05;;;0.60;99.90;;;;;;5076730;28;20274;-74
2023/01/15 18:28:55;;;;;;;1.48;1.38;;;0.60;99.90;;;;;;5076409;28;20204;-74
2023/01/15 18:31:21;;;;;;;2.50;1.52;;;0.60;99.90;;;;;;5075947;28;20594;-74
2023/01/15 18:33:48;;;;;;;1.58;1.40;;;0.60;99.90;;;;;;5077358;28;20196;-74
2023/01/15 18:36:15;;;;;;;1.17;1.13;;;0.60;99.90;;;;;;5076458;28;20227;-74
2023/01/15 18:38:43;;;;;;;1.50;1.40;;;0.50;99.90;;;;;;5076154;28;20208;-74
2023/01/15 18:41:12;;;;;;;2.40;1.42;;;0.50;99.90;;;;;;5076198;28;20196;-74
2023/01/15 18:49:08;;;;;;;2.42;1.17;;;0.50;99.90;;;;;;5076364;28;20186;-74
2023/01/15 18:51:35;;;;;;;1.48;1.20;;;0.50;99.90;;;;;;5075568;28;20220;-74
2023/01/15 18:54:04;;;;;;;1.48;1.35;;;0.50;99.90;;;;;;5076030;28;20204;-74
2023/01/15 18:56:41;;;;;;;1.35;1.05;;;0.50;99.90;;;;;;5076031;28;20216;-74
2023/01/15 18:59:09;;;;;;;1.48;1.00;;;0.40;99.90;;;;;;5075919;28;20188;-74
2023/01/15 19:01:37;;;;;;;3.42;3.15;;;0.40;99.90;;;;;;5075994;28;20291;-74
2023/01/15 19:04:07;;;;;;;1.95;1.85;;;0.30;99.90;;;;;;5075511;28;20667;-74
2023/01/15 19:06:34;;;;;;;11.07;6.32;;;0.30;99.90;;;;;;5075458;28;20258;-74
2023/01/15 19:09:02;;;;;;;3.63;2.92;;;0.20;99.90;;;;;;5075672;28;20279;-74
2023/01/15 19:11:29;;;;;;;3.70;1.70;;;0.10;99.90;;;;;;5075127;28;20231;-74
2023/01/15 19:19:26;;;;;;;2.15;2.03;;;-0.10;99.90;;;;;;5075386;28;20314;-75
2023/01/15 19:24:35;;;;;;;1.50;1.40;;;-0.10;99.90;;;;;;5075313;28;20192;-74
2023/01/15 19:27:01;;;;;;;1.77;1.67;;;-0.10;99.90;;;;;;5075237;28;20252;-74
2023/01/15 19:29:31;;;;;;;3.10;2.75;;;-0.10;99.90;;;;;;5075146;28;20196;-74
2023/01/15 19:32:01;;;;;;;27.25;14.77;;;0.00;99.90;;;;;;5075048;28;20663;-74
2023/01/15 19:34:28;;;;;;;15.93;9.60;;;-0.10;99.90;;;;;;5075439;28;20188;-73
2023/01/15 19:36:55;;;;;;;5.57;4.18;;;-0.10;99.90;;;;;;5075117;28;20220;-74
2023/01/15 19:39:22;;;;;;;4.57;2.63;;;-0.20;99.90;;;;;;5075309;28;20243;-74
2023/01/15 19:50:21;;;;;;;5.05;3.38;;;-0.30;99.90;;;;;;5074904;28;20227;-74
2023/01/15 19:52:48;;;;;;;3.80;3.20;;;-0.40;99.90;;;;;;5074077;28;20191;-74
2023/01/15 19:55:16;;;;;;;4.38;3.22;;;-0.40;99.90;;;;;;5074559;28;20675;-74
2023/01/15 19:57:45;;;;;;;4.40;3.50;;;-0.50;99.90;;;;;;5074828;28;20572;-74
2023/01/15 20:00:14;;;;;;;4.10;3.70;;;-0.50;99.90;;;;;;5074883;28;20196;-74
2023/01/15 20:02:44;;;;;;;4.78;4.07;;;-0.60;99.90;;;;;;5074204;28;20555;-74
2023/01/15 20:05:12;;;;;;;3.63;3.35;;;-0.60;99.90;;;;;;5074718;28;20199;-74
2023/01/15 20:07:38;;;;;;;3.00;2.80;;;-0.70;99.90;;;;;;5074202;28;20235;-74
2023/01/15 20:10:08;;;;;;;3.05;2.60;;;-0.60;99.90;;;;;;5074326;28;20219;-74
2023/01/15 20:15:20;;;;;;;5.28;2.60;;;-0.50;99.90;;;;;;5074179;28;20186;-75
2023/01/15 20:17:48;;;;;;;3.25;2.90;;;-0.50;99.90;;;;;;5074367;28;20208;-75
2023/01/15 20:20:15;;;;;;;2.53;2.00;;;-0.40;99.90;;;;;;5074246;28;20203;-74
2023/01/15 20:22:42;;;;;;;1.98;1.67;;;-0.40;99.90;;;;;;5074011;28;20202;-74
2023/01/15 20:25:09;;;;;;;3.13;1.52;;;-0.40;99.90;;;;;;5074184;28;20200;-74
2023/01/15 20:27:38;;;;;;;2.58;1.75;;;-0.40;99.90;;;;;;5074029;28;20231;-74
2023/01/15 20:30:08;;;;;;;4.03;1.90;;;-0.40;99.90;;;;;;5074113;28;20224;-74
2023/01/15 20:32:36;;;;;;;5.03;1.60;;;-0.40;99.90;;;;;;5074567;28;20207;-74
2023/01/15 20:35:05;;;;;;;8.18;4.28;;;-0.40;99.90;;;;;;5073736;28;20559;-74
2023/01/15 20:37:32;;;;;;;3.75;3.00;;;-0.40;99.90;;;;;;5073915;28;20223;-74
2023/01/15 20:39:59;;;;;;;3.40;2.10;;;-0.30;99.90;;;;;;5073826;28;20686;-75
2023/01/15 20:45:11;;;;;;;11.57;5.50;;;-0.30;99.90;;;;;;5074071;28;20188;-75
2023/01/15 20:50:27;;;;;;;9.40;4.28;;;-0.40;99.90;;;;;;5073519;28;20353;-74
2023/01/15 20:52:55;;;;;;;12.32;4.30;;;-0.40;99.90;;;;;;5074167;28;20204;-75
2023/01/15 20:55:22;;;;;;;9.55;4.18;;;-0.50;99.90;;;;;;5074273;28;20200;-73
2023/01/15 20:57:50;;;;;;;6.88;3.50;;;-0.50;99.90;;;;;;5073564;28;20746;-77
2023/01/15 21:00:20;;;;;;;5.53;3.78;;;-0.60;99.90;;;;;;5073445;28;20690;-74
2023/01/15 21:02:47;;;;;;;4.40;2.85;;;-0.60;99.90;;;;;;5073636;28;20180;-74
2023/01/15 21:05:14;;;;;;;4.57;3.03;;;-0.70;99.90;;;;;;5073586;28;20674;-74
2023/01/15 21:07:42;;;;;;;2.58;2.38;;;-0.60;99.90;;;;;;5073502;28;20231;-74
2023/01/15 21:10:12;;;;;;;1.80;1.70;;;-0.70;99.90;;;;;;5073523;28;20674;-74
2023/01/15 21:12:38;;;;;;;3.53;1.58;;;-0.60;99.90;;;;;;5074379;28;20249;-74
2023/01/15 21:15:06;;;;;;;2.35;1.23;;;-0.70;99.90;;;;;;5073627;28;20200;-74
2023/01/15 21:17:33;;;;;;;2.58;1.15;;;-0.70;99.90;;;;;;5073158;28;20227;-74
2023/01/15 21:20:00;;;;;;;2.42;1.67;;;-0.60;99.90;;;;;;5073057;28;20563;-74
2023/01/15 21:22:29;;;;;;;2.10;1.50;;;-0.60;99.90;;;;;;5073352;28;20227;-73
2023/01/15 21:24:58;;;;;;;1.48;1.38;;;-0.60;99.90;;;;;;5073346;28;20203;-74
2023/01/15 21:27:24;;;;;;;2.28;1.30;;;-0.70;99.90;;;;;;5072938;28;20613;-73
2023/01/15 21:29:51;;;;;;;2.13;1.60;;;-0.70;99.90;;;;;;5073496;28;20204;-73
2023/01/15 21:32:18;;;;;;;2.08;1.88;;;-0.80;99.90;;;;;;5073166;28;20224;-73
2023/01/15 21:34:44;;;;;;;5.15;3.42;;;-0.80;99.90;;;;;;5073855;28;20204;-73
2023/01/15 21:37:11;;;;;;;11.68;5.40;;;-0.80;99.90;;;;;;5073507;28;20216;-73
2023/01/15 21:39:38;;;;;;;10.63;4.80;;;-0.90;99.90;;;;;;5073320;28;20200;-73
2023/01/15 21:44:50;;;;;;;8.30;3.67;;;-1.00;99.90;;;;;;5073612;28;20187;-73